Cosco Singapore — 2BOW4 — position and weather

sailwx.info

Track history (hours):
 
Tides and Currents Weather Stations Pressure Air Temp Water Temp Dewpoint Dewpoint Depression Visibility Wind Speed Wind Dir Waves Ship Positions

Cosco Singapore

Last reported at 2017-Nov-05 20:42 UTC. Time now 2017-Nov-24 18:42 UTC.
Position N 37°27' E 025°56'.
Warning: this ship's position is 18 days out of date.

Length 280 m; draft 12.2 m.

Type: Ship (hazmat cat A). MMSI: 235068032.

Date/timePositionNaut miles runAvg speedWind from/ knotsBaromVisibWave heightAir tempDewpointWater temp
2017-Nov-05 20:42N 37°27' E 025°56'212.5
2017-Nov-05 20:30N 37°30' E 025°55'612.5
2017-Nov-05 20:00N 37°36' E 025°52'  
2017-Nov-03 06:08N 40°53' E 028°45'217.2
2017-Nov-03 06:00N 40°52' E 028°47'918.1
2017-Nov-03 05:30N 40°46' E 028°57'918.2
2017-Nov-03 05:00N 40°45' E 029°09'816.0
2017-Nov-03 04:29N 40°44' E 029°20'6 9.8
2017-Nov-03 03:54N 40°45' E 029°27'12 0.6
2017-Nov-02 09:13N 40°46' E 029°42'0 0.0
2017-Nov-02 08:49N 40°46' E 029°42'4 1.1
2017-Nov-02 05:09N 40°44' E 029°38'312.7
2017-Nov-02 04:54N 40°45' E 029°34'511.0
2017-Nov-02 04:28N 40°44' E 029°27'4 9.6
2017-Nov-02 04:00N 40°43' E 029°22'4 7.9
2017-Nov-02 03:30N 40°43' E 029°16'917.8
2017-Nov-02 03:00N 40°44' E 029°05'30512.2
2017-Nov-01 01:59N 37°57' E 023°35'0 0.0
2017-Nov-01 01:29N 37°57' E 023°35'0 0.0
2017-Nov-01 00:59N 37°57' E 023°35'0 0.0
2017-Nov-01 00:29N 37°57' E 023°35'0 0.0
2017-Oct-31 23:59N 37°57' E 023°35'0 0.0
2017-Oct-31 23:29N 37°57' E 023°35'0 0.0
2017-Oct-31 22:59N 37°57' E 023°35'0 0.0
2017-Oct-31 22:29N 37°57' E 023°35'0 0.0
2017-Oct-31 21:59N 37°57' E 023°35'0 0.0
2017-Oct-31 21:29N 37°57' E 023°35'0 0.0
2017-Oct-31 20:59N 37°57' E 023°35'0 0.0
2017-Oct-31 20:29N 37°57' E 023°35'0 0.0
2017-Oct-31 19:59N 37°57' E 023°35'0 0.0
2017-Oct-31 19:29N 37°57' E 023°35'0 0.0
2017-Oct-31 18:59N 37°57' E 023°35'0 0.0
2017-Oct-31 18:29N 37°57' E 023°35'0 0.0
2017-Oct-31 17:59N 37°57' E 023°35'0 0.0
2017-Oct-31 17:29N 37°57' E 023°35'0 0.0
2017-Oct-31 16:59N 37°57' E 023°35'0 0.0
2017-Oct-31 16:29N 37°57' E 023°35'0 0.0
2017-Oct-31 15:59N 37°57' E 023°35'0 0.0
2017-Oct-31 15:29N 37°57' E 023°35'0 0.0
2017-Oct-31 14:59N 37°57' E 023°35'0 0.0
2017-Oct-31 14:29N 37°57' E 023°35'0 0.0
2017-Oct-31 13:59N 37°57' E 023°35'0 0.0
2017-Oct-31 13:29N 37°57' E 023°35'0 0.0
2017-Oct-31 12:59N 37°57' E 023°35'0 0.0
2017-Oct-31 12:29N 37°57' E 023°35'0 0.0
2017-Oct-31 11:59N 37°57' E 023°35'0 0.0
2017-Oct-31 11:29N 37°57' E 023°35'0 0.0
2017-Oct-31 10:59N 37°57' E 023°35'0 0.0
2017-Oct-31 10:29N 37°57' E 023°35'0 0.0
2017-Oct-31 09:59N 37°57' E 023°35'0 0.0
2017-Oct-31 09:29N 37°57' E 023°35'0 0.0
2017-Oct-31 08:59N 37°57' E 023°35'0 0.0
2017-Oct-31 08:29N 37°57' E 023°35'0 0.0
2017-Oct-31 07:59N 37°57' E 023°35'0 0.0
2017-Oct-31 07:29N 37°57' E 023°35'0 0.1
2017-Oct-31 07:01N 37°57' E 023°35'1 3.0
2017-Oct-31 06:30N 37°56' E 023°35'3 5.9
2017-Oct-31 06:01N 37°53' E 023°35'1 1.6
2017-Oct-31 05:30N 37°52' E 023°35'0 0.6
2017-Oct-31 05:00N 37°52' E 023°35'1 1.7
2017-Oct-31 04:30N 37°52' E 023°36'2 3.2
2017-Oct-31 04:00N 37°52' E 023°38'612.2
2017-Oct-31 03:30N 37°46' E 023°42'612.3
2017-Oct-31 03:00N 37°41' E 023°45'1315.6
2017-Oct-31 02:09N 37°35' E 024°01'3616.6
2017-Oct-30 23:59N 37°24' E 024°44'817.1
2017-Oct-30 23:30N 37°20' E 024°52'917.5
2017-Oct-30 23:01N 37°18' E 025°03'918.4
2017-Oct-30 22:31N 37°17' E 025°15'918.8
2017-Oct-30 22:00N 37°16' E 025°26'1018.2
2017-Oct-30 21:26N 37°14' E 025°39'817.6
2017-Oct-30 21:00N 37°12' E 025°49'  
2017-Oct-27 19:43N 32°52' E 033°17'312.0
2017-Oct-27 19:27N 32°49' E 033°15'511.9
2017-Oct-27 19:00N 32°44' E 033°13'611.9
2017-Oct-27 18:30N 32°38' E 033°10'612.0
2017-Oct-27 17:59N 32°32' E 033°08'612.1
2017-Oct-27 17:30N 32°27' E 033°05'  
Track history (hours):
 
Tides and Currents Weather Stations Pressure Air Temp Water Temp Dewpoint Dewpoint Depression Visibility Wind Speed Wind Dir Waves Ship Positions

Cosco Singapore

Last reported at 2017-Nov-05 20:42 UTC. Time now 2017-Nov-24 18:42 UTC.
Position N 37°27' E 025°56'.
Warning: this ship's position is 18 days out of date.

Length 280 m; draft 12.2 m.

Type: Ship (hazmat cat A). MMSI: 235068032.

Date/timePositionNaut miles runAvg speedWind from/ knotsBaromVisibWave heightAir tempDewpointWater temp
2017-Nov-05 20:42N 37°27' E 025°56'212.5
2017-Nov-05 20:30N 37°30' E 025°55'612.5
2017-Nov-05 20:00N 37°36' E 025°52'  
2017-Nov-03 06:08N 40°53' E 028°45'217.2
2017-Nov-03 06:00N 40°52' E 028°47'918.1
2017-Nov-03 05:30N 40°46' E 028°57'918.2
2017-Nov-03 05:00N 40°45' E 029°09'816.0
2017-Nov-03 04:29N 40°44' E 029°20'6 9.8
2017-Nov-03 03:54N 40°45' E 029°27'12 0.6
2017-Nov-02 09:13N 40°46' E 029°42'0 0.0
2017-Nov-02 08:49N 40°46' E 029°42'4 1.1
2017-Nov-02 05:09N 40°44' E 029°38'312.7
2017-Nov-02 04:54N 40°45' E 029°34'511.0
2017-Nov-02 04:28N 40°44' E 029°27'4 9.6
2017-Nov-02 04:00N 40°43' E 029°22'4 7.9
2017-Nov-02 03:30N 40°43' E 029°16'917.8
2017-Nov-02 03:00N 40°44' E 029°05'30512.2
2017-Nov-01 01:59N 37°57' E 023°35'0 0.0
2017-Nov-01 01:29N 37°57' E 023°35'0 0.0
2017-Nov-01 00:59N 37°57' E 023°35'0 0.0
2017-Nov-01 00:29N 37°57' E 023°35'0 0.0
2017-Oct-31 23:59N 37°57' E 023°35'0 0.0
2017-Oct-31 23:29N 37°57' E 023°35'0 0.0
2017-Oct-31 22:59N 37°57' E 023°35'0 0.0
2017-Oct-31 22:29N 37°57' E 023°35'0 0.0
2017-Oct-31 21:59N 37°57' E 023°35'0 0.0
2017-Oct-31 21:29N 37°57' E 023°35'0 0.0
2017-Oct-31 20:59N 37°57' E 023°35'0 0.0
2017-Oct-31 20:29N 37°57' E 023°35'0 0.0
2017-Oct-31 19:59N 37°57' E 023°35'0 0.0
2017-Oct-31 19:29N 37°57' E 023°35'0 0.0
2017-Oct-31 18:59N 37°57' E 023°35'0 0.0
2017-Oct-31 18:29N 37°57' E 023°35'0 0.0
2017-Oct-31 17:59N 37°57' E 023°35'0 0.0
2017-Oct-31 17:29N 37°57' E 023°35'0 0.0
2017-Oct-31 16:59N 37°57' E 023°35'0 0.0
2017-Oct-31 16:29N 37°57' E 023°35'0 0.0
2017-Oct-31 15:59N 37°57' E 023°35'0 0.0
2017-Oct-31 15:29N 37°57' E 023°35'0 0.0
2017-Oct-31 14:59N 37°57' E 023°35'0 0.0
2017-Oct-31 14:29N 37°57' E 023°35'0 0.0
2017-Oct-31 13:59N 37°57' E 023°35'0 0.0
2017-Oct-31 13:29N 37°57' E 023°35'0 0.0
2017-Oct-31 12:59N 37°57' E 023°35'0 0.0
2017-Oct-31 12:29N 37°57' E 023°35'0 0.0
2017-Oct-31 11:59N 37°57' E 023°35'0 0.0
2017-Oct-31 11:29N 37°57' E 023°35'0 0.0
2017-Oct-31 10:59N 37°57' E 023°35'0 0.0
2017-Oct-31 10:29N 37°57' E 023°35'0 0.0
2017-Oct-31 09:59N 37°57' E 023°35'0 0.0
2017-Oct-31 09:29N 37°57' E 023°35'0 0.0
2017-Oct-31 08:59N 37°57' E 023°35'0 0.0
2017-Oct-31 08:29N 37°57' E 023°35'0 0.0
2017-Oct-31 07:59N 37°57' E 023°35'0 0.0
2017-Oct-31 07:29N 37°57' E 023°35'0 0.1
2017-Oct-31 07:01N 37°57' E 023°35'1 3.0
2017-Oct-31 06:30N 37°56' E 023°35'3 5.9
2017-Oct-31 06:01N 37°53' E 023°35'1 1.6
2017-Oct-31 05:30N 37°52' E 023°35'0 0.6
2017-Oct-31 05:00N 37°52' E 023°35'1 1.7
2017-Oct-31 04:30N 37°52' E 023°36'2 3.2
2017-Oct-31 04:00N 37°52' E 023°38'612.2
2017-Oct-31 03:30N 37°46' E 023°42'612.3
2017-Oct-31 03:00N 37°41' E 023°45'1315.6
2017-Oct-31 02:09N 37°35' E 024°01'3616.6
2017-Oct-30 23:59N 37°24' E 024°44'817.1
2017-Oct-30 23:30N 37°20' E 024°52'917.5
2017-Oct-30 23:01N 37°18' E 025°03'918.4
2017-Oct-30 22:31N 37°17' E 025°15'918.8
2017-Oct-30 22:00N 37°16' E 025°26'1018.2
2017-Oct-30 21:26N 37°14' E 025°39'817.6
2017-Oct-30 21:00N 37°12' E 025°49'  
2017-Oct-27 19:43N 32°52' E 033°17'312.0
2017-Oct-27 19:27N 32°49' E 033°15'511.9
2017-Oct-27 19:00N 32°44' E 033°13'611.9
2017-Oct-27 18:30N 32°38' E 033°10'612.0
2017-Oct-27 17:59N 32°32' E 033°08'612.1
2017-Oct-27 17:30N 32°27' E 033°05'  

Dump ship's entire track history